Hlavní strana
METAR-TAF:

METAR-TAF

Letiště :

Castres, Francie

zeměpisná šířka: 43-33-25N, zeměpisná délka: 2-17-21E, výška: 239 m

Aktuální stav počasí

Zpráva byla vytvořena před 20 minutami, v 04:30 UTC
vítr z různých směrů 2 kt
Teplota 12°C
Vlhkost vzduchu 82%
Tlak 1028 hPa
Viditelnost 10 km a více
Žádná oblačnost pod 1500 m, nevyskytují se cumulonimby.

METAR: LFCK 260430Z AUTO VRB02KT CAVOK 12/09 Q1028

Čas: 06:50 (04:50 UTC)

Předpověď počasí

Zpráva byla vytvořena před 11 hodinami a 50 minutami, v 17:00 UTC
Předpověď platná od 25 v 18 UTC do 26 v 03 UTC
vítr z různých směrů 3 kt
Viditelnost 10 km a více
Žádná oblačnost pod 1500 m, nevyskytují se cumulonimby.

TAF: LFCK 251700Z 2518/2603 VRB03KT CAVOK

Stav a předpovědi počasí z více než 4 000 letišť (zprávy METAR a TAF).

Červené a žluté tečky na mapě představují dostupné meteorologické stanice.

Když kurzor umístíte na tečku, zobrazí se název stanice.

Pak kliknutím zobrazíte stav a předpověď počasí.

Chcete-li změnit mapu, kliknutím na zelené tlačítko se znaménkem +mapu přiblížíte, kliknutím na zelené tlačítko se znaménkem – mapu oddálíte a kliknutím na zelené šipky přejdete na sousední mapy.


METAR-TAF: